Latest Weather Observations for Busselton Jetty

IDW60801

Issued at 8:05 am WST Wednesday 26 November 2014 (issued every 30 minutes, with the page automatically refreshed every 10 minutes)

About weather observations | Map of weather stations | Latest weather observations for WA | Other Formats
Station Details ID: 009937 Name: BUSSELTON JETTY Lat: -33.63 Lon: 115.34 Height: 3.0 m
Data from the previous 72 hours. | See also: Recent months for locations in Western Australia
Date/Time
WST
Temp
°C
App
Temp
°C
Dew
Point
Rel
Hum
%
Delta-T
°C
Wind Press
QNH
hPa
Press
MSL
hPa
Rain
since 9 am
mm
Dir
 
Spd
km/h
Gust
km/h
Spd
kts
Gust
kts
26/08:00am - - - - - ESE 33 37 18 20 - - -
26/07:30am - - - - - ESE 26 32 14 17 - - -
26/07:00am - - - - - ESE 35 43 19 23 - - -
26/06:30am - - - - - ESE 39 48 21 26 - - -
26/06:00am - - - - - ESE 35 46 19 25 - - -
26/05:30am - - - - - ESE 35 44 19 24 - - -
26/05:00am - - - - - SE 32 39 17 21 - - -
26/04:30am - - - - - SE 28 35 15 19 - - -
26/04:00am - - - - - SE 24 32 13 17 - - -
26/03:30am - - - - - SE 28 35 15 19 - - -
26/03:00am - - - - - SE 28 33 15 18 - - -
26/02:30am - - - - - SE 30 35 16 19 - - -
26/02:00am - - - - - SE 32 37 17 20 - - -
26/01:30am - - - - - SE 28 33 15 18 - - -
26/01:00am - - - - - SE 28 35 15 19 - - -
26/12:30am - - - - - SE 24 32 13 17 - - -
26/12:00am - - - - - SE 26 33 14 18 - - -
 
Date/Time
WST
Temp
°C
App
Temp
°C
Dew
Point
Rel
Hum
%
Delta-T
°C
Wind Press
QNH
hPa
Press
MSL
hPa
Rain
since 9 am
mm
Dir
 
Spd
km/h
Gust
km/h
Spd
kts
Gust
kts
25/11:30pm - - - - - SSE 19 28 10 15 - - -
25/11:00pm - - - - - SE 24 32 13 17 - - -
25/10:30pm - - - - - SSE 28 35 15 19 - - -
25/10:00pm - - - - - SSE 30 35 16 19 - - -
25/09:30pm - - - - - SSE 28 32 15 17 - - -
25/09:00pm - - - - - S 30 35 16 19 - - -
25/08:30pm - - - - - S 30 35 16 19 - - -
25/08:00pm - - - - - S 32 37 17 20 - - -
25/07:30pm - - - - - S 30 37 16 20 - - -
25/07:00pm - - - - - S 30 39 16 21 - - -
25/06:30pm - - - - - SSW 32 44 17 24 - - -
25/06:00pm - - - - - SSW 37 43 20 23 - - -
25/05:30pm - - - - - SSW 37 48 20 26 - - -
25/05:00pm - - - - - SSW 37 44 20 24 - - -
25/04:30pm - - - - - SSW 32 39 17 21 - - -
25/04:00pm - - - - - SSE 24 28 13 15 - - -
25/03:30pm - - - - - SSE 19 26 10 14 - - -
25/03:00pm - - - - - S 13 30 7 16 - - -
25/02:30pm - - - - - SSE 13 19 7 10 - - -
25/02:00pm - - - - - ENE 9 13 5 7 - - -
25/01:30pm - - - - - ESE 11 13 6 7 - - -
25/01:00pm - - - - - SE 17 20 9 11 - - -
25/12:30pm - - - - - E 11 15 6 8 - - -
25/12:00pm - - - - - ESE 19 22 10 12 - - -
25/11:30am - - - - - ESE 15 20 8 11 - - -
25/11:00am - - - - - ESE 20 26 11 14 - - -
25/10:30am - - - - - ESE 24 33 13 18 - - -
25/10:00am - - - - - SE 22 26 12 14 - - -
25/09:30am - - - - - SE 26 32 14 17 - - -
25/09:00am - - - - - ESE 28 32 15 17 - - -
25/08:30am - - - - - ESE 30 35 16 19 - - -
25/08:00am - - - - - ESE 20 26 11 14 - - -
25/07:30am - - - - - SE 28 32 15 17 - - -
25/07:00am - - - - - SE 28 35 15 19 - - -
25/06:30am - - - - - SE 28 32 15 17 - - -
25/06:00am - - - - - SE 24 30 13 16 - - -
25/05:30am - - - - - SSE 19 24 10 13 - - -
25/05:00am - - - - - SSE 17 26 9 14 - - -
25/04:30am - - - - - SSE 15 19 8 10 - - -
25/04:00am - - - - - S 17 20 9 11 - - -
25/03:30am - - - - - S 19 24 10 13 - - -
25/03:00am - - - - - S 17 20 9 11 - - -
25/02:30am - - - - - S 15 20 8 11 - - -
25/02:00am - - - - - S 17 20 9 11 - - -
25/01:30am - - - - - S 19 24 10 13 - - -
25/01:00am - - - - - S 19 24 10 13 - - -
25/12:30am - - - - - S 19 26 10 14 - - -
25/12:00am - - - - - S 24 30 13 16 - - -
 
Date/Time
WST
Temp
°C
App
Temp
°C
Dew
Point
Rel
Hum
%
Delta-T
°C
Wind Press
QNH
hPa
Press
MSL
hPa
Rain
since 9 am
mm
Dir
 
Spd
km/h
Gust
km/h
Spd
kts
Gust
kts
24/11:30pm - - - - - S 28 33 15 18 - - -
24/11:00pm - - - - - S 30 35 16 19 - - -
24/10:30pm - - - - - S 28 33 15 18 - - -
24/10:00pm - - - - - S 28 32 15 17 - - -
24/09:30pm - - - - - S 32 39 17 21 - - -
24/09:00pm - - - - - S 30 37 16 20 - - -
24/08:30pm - - - - - S 30 37 16 20 - - -
24/08:00pm - - - - - SSW 33 41 18 22 - - -
24/07:30pm - - - - - S 32 41 17 22 - - -
24/07:00pm - - - - - S 33 44 18 24 - - -
24/06:30pm - - - - - SSW 39 48 21 26 - - -
24/06:00pm - - - - - SSW 37 44 20 24 - - -
24/05:30pm - - - - - SSW 35 44 19 24 - - -
24/05:00pm - - - - - SSW 35 44 19 24 - - -
24/04:30pm - - - - - SW 37 48 20 26 - - -
24/04:00pm - - - - - SW 37 44 20 24 - - -
24/03:56pm - - - - - SW 37 41 20 22 - - -
24/03:30pm - - - - - NW 22 26 12 14 - - -
24/03:00pm - - - - - NW 26 28 14 15 - - -
24/02:30pm - - - - - NW 26 28 14 15 - - -
24/02:00pm - - - - - NW 28 30 15 16 - - -
24/01:30pm - - - - - NW 26 30 14 16 - - -
24/01:00pm - - - - - NW 20 26 11 14 - - -
24/12:30pm - - - - - NNW 15 19 8 10 - - -
24/12:00pm - - - - - NNW 15 19 8 10 - - -
24/11:30am - - - - - SSE 9 13 5 7 - - -
24/11:00am - - - - - ESE 15 20 8 11 - - -
24/10:30am - - - - - ESE 11 15 6 8 - - -
24/10:00am - - - - - SSE 15 20 8 11 - - -
24/09:30am - - - - - SSE 19 28 10 15 - - -
24/09:00am - - - - - SE 20 28 11 15 - - -
24/08:30am - - - - - SE 22 30 12 16 - - -
24/08:00am - - - - - SSE 20 28 11 15 - - -
24/07:30am - - - - - S 15 19 8 10 - - -
24/07:00am - - - - - S 15 17 8 9 - - -
24/06:30am - - - - - S 15 19 8 10 - - -
24/06:00am - - - - - S 13 17 7 9 - - -
24/05:30am - - - - - S 15 15 8 8 - - -
24/05:00am - - - - - S 13 15 7 8 - - -
24/04:30am - - - - - S 11 13 6 7 - - -
24/04:00am - - - - - S 13 17 7 9 - - -
24/03:30am - - - - - SSW 15 17 8 9 - - -
24/03:00am - - - - - SSW 17 19 9 10 - - -
24/02:30am - - - - - SSW 15 17 8 9 - - -
24/02:00am - - - - - SSW 13 15 7 8 - - -
24/01:30am - - - - - SSW 11 15 6 8 - - -
24/01:00am - - - - - S 11 13 6 7 - - -
24/12:30am - - - - - S 13 15 7 8 - - -
24/12:00am - - - - - SSW 13 17 7 9 - - -
 
Date/Time
WST
Temp
°C
App
Temp
°C
Dew
Point
Rel
Hum
%
Delta-T
°C
Wind Press
QNH
hPa
Press
MSL
hPa
Rain
since 9 am
mm
Dir
 
Spd
km/h
Gust
km/h
Spd
kts
Gust
kts
23/11:30pm - - - - - SSW 13 15 7 8 - - -
23/11:00pm - - - - - S 15 19 8 10 - - -
23/10:30pm - - - - - SSW 13 17 7 9 - - -
23/10:00pm - - - - - S 15 19 8 10 - - -
23/09:30pm - - - - - S 17 20 9 11 - - -
23/09:00pm - - - - - S 17 20 9 11 - - -
23/08:30pm - - - - - S 20 26 11 14 - - -
23/08:00pm - - - - - S 20 26 11 14 - - -
23/07:30pm - - - - - SSW 19 26 10 14 - - -
23/07:00pm - - - - - S 28 35 15 19 - - -
23/06:30pm - - - - - SSW 30 35 16 19 - - -
23/06:00pm - - - - - S 28 33 15 18 - - -
23/05:30pm - - - - - SSW 28 35 15 19 - - -
23/05:00pm - - - - - SSW 32 39 17 21 - - -
23/04:30pm - - - - - SSW 28 35 15 19 - - -
23/04:00pm - - - - - SW 30 39 16 21 - - -
23/03:30pm - - - - - SW 28 39 15 21 - - -
23/03:00pm - - - - - WSW 33 39 18 21 - - -
23/02:30pm - - - - - WSW 20 30 11 16 - - -
23/02:00pm - - - - - WSW 22 26 12 14 - - -
23/01:30pm - - - - - W 19 24 10 13 - - -
23/01:00pm - - - - - WSW 19 30 10 16 - - -
23/12:30pm - - - - - WSW 26 33 14 18 - - -
23/12:00pm - - - - - SW 28 37 15 20 - - -
23/11:30am - - - - - WSW 20 39 11 21 - - -
23/11:00am - - - - - WSW 26 33 14 18 - - -
23/10:30am - - - - - WSW 30 37 16 20 - - -
23/10:00am - - - - - WSW 28 39 15 21 - - -
23/09:30am - - - - - WSW 30 39 16 21 - - -
23/09:00am - - - - - SW 32 41 17 22 - - -
23/08:30am - - - - - SW 33 44 18 24 - - -

Other Formats:

Comma delimited format used in spreadsheet applications
http://www.bom.gov.au/fwo/IDW60801/IDW60801.95602.axf

JavaScript Object Notation format (JSON) in row-major order
http://www.bom.gov.au/fwo/IDW60801/IDW60801.95602.json